createdAt,value
2019-03-08T15:34:47.381Z,44.91
2019-03-08T15:35:44.769Z,44.68
2019-03-08T15:36:43.452Z,43.80
2019-03-08T15:38:27.214Z,45.49
2019-03-08T15:39:27.385Z,44.44
2019-03-08T15:40:19.440Z,44.90
2019-03-08T15:41:14.627Z,45.14
2019-03-08T15:42:18.585Z,44.23
2019-03-08T15:43:39.216Z,44.70
2019-03-08T15:45:46.852Z,45.28
2019-03-08T15:47:13.663Z,45.07
2019-03-08T15:48:30.014Z,45.46
2019-03-08T15:49:36.526Z,45.54
2019-03-08T15:50:46.647Z,45.04
2019-03-08T15:51:55.225Z,44.73
2019-03-08T15:52:55.444Z,44.82
2019-03-08T15:54:14.390Z,45.52
2019-03-08T15:55:06.825Z,46.65
2019-03-08T15:56:02.163Z,45.87
2019-03-08T15:56:55.727Z,46.49
2019-03-08T15:57:47.678Z,46.10
2019-03-08T15:58:40.053Z,45.13
2019-03-08T15:59:35.515Z,44.77
2019-03-08T16:00:29.886Z,44.65
2019-03-08T16:01:21.304Z,45.61
2019-03-08T16:02:11.963Z,45.96
2019-03-08T16:03:03.434Z,46.18
2019-03-08T16:03:54.606Z,45.94
2019-03-08T16:04:50.128Z,45.53
2019-03-08T16:05:41.004Z,46.13
2019-03-08T16:06:32.770Z,46.06
2019-03-08T16:07:26.293Z,46.19
2019-03-08T16:08:16.443Z,47.00
2019-03-08T16:09:11.646Z,45.24
2019-03-08T16:10:02.964Z,45.80
2019-03-08T16:10:54.114Z,45.81
2019-03-08T16:11:46.259Z,46.07
2019-03-08T16:12:37.351Z,46.06
2019-03-08T16:13:28.134Z,45.37
2019-03-08T16:14:38.806Z,46.14
2019-03-08T16:15:32.295Z,46.21
2019-03-08T16:16:35.222Z,47.00
2019-03-08T16:21:39.263Z,46.61
2019-03-08T16:22:39.924Z,46.59
2019-03-08T16:23:35.233Z,46.62
2019-03-08T16:24:46.081Z,45.99
2019-03-08T16:25:41.192Z,46.51
2019-03-08T16:26:35.917Z,46.18
2019-03-08T16:27:28.354Z,46.12
2019-03-08T16:28:19.424Z,46.27
2019-03-08T16:29:10.677Z,46.55
2019-03-08T16:30:08.442Z,46.29
2019-03-08T16:30:57.777Z,46.17
2019-03-08T16:31:56.961Z,45.42
2019-03-08T16:32:58.802Z,46.12
2019-03-08T16:33:52.528Z,46.56
2019-03-08T16:34:44.156Z,46.88
2019-03-08T16:36:04.965Z,45.70
2019-03-08T16:37:15.025Z,46.04
2019-03-08T16:38:28.293Z,46.89
2019-03-08T16:39:36.299Z,47.37
2019-03-08T16:41:04.352Z,46.50
2019-03-08T16:42:14.144Z,46.13
2019-03-08T16:43:15.618Z,46.60
2019-03-08T16:44:24.270Z,46.53
2019-03-08T16:46:01.856Z,46.61
2019-03-08T16:47:22.189Z,47.06
2019-03-08T16:48:20.755Z,47.17
2019-03-08T16:49:21.025Z,47.58
2019-03-08T16:50:22.280Z,47.45
2019-03-08T16:51:18.976Z,47.42
2019-03-08T16:52:45.290Z,47.40
2019-03-08T16:54:05.026Z,47.37
2019-03-08T16:55:12.501Z,47.41
2019-03-08T16:56:12.617Z,47.60
2019-03-08T16:57:15.611Z,47.75
2019-03-08T16:58:23.255Z,48.23
2019-03-08T16:59:36.196Z,48.82
2019-03-08T17:00:41.939Z,49.07
2019-03-08T17:01:57.765Z,48.97
2019-03-08T17:02:55.272Z,48.95
2019-03-08T17:03:57.399Z,48.33
2019-03-08T17:05:02.521Z,49.27
2019-03-08T17:06:29.397Z,49.23
2019-03-08T17:07:25.520Z,49.24
2019-03-08T17:08:39.086Z,49.53
2019-03-08T17:09:47.536Z,50.08
2019-03-08T17:10:49.100Z,50.22
2019-03-08T17:12:01.743Z,50.77
2019-03-08T17:13:20.966Z,50.29
2019-03-08T17:14:27.422Z,50.46
2019-03-08T17:15:40.231Z,50.65
2019-03-08T17:16:55.460Z,50.19
2019-03-08T17:18:15.259Z,50.81
2019-03-08T17:19:12.869Z,51.30
2019-03-08T17:20:27.661Z,51.33
2019-03-08T17:21:31.671Z,49.62
2019-03-08T17:22:35.025Z,50.23
2019-03-08T17:23:56.881Z,50.07
2019-03-08T17:25:25.049Z,49.35
2019-03-08T17:26:33.083Z,49.77
2019-03-08T17:27:39.998Z,49.74
2019-03-08T17:28:44.600Z,49.62
2019-03-08T17:30:01.629Z,49.00
2019-03-08T17:31:11.269Z,48.77
2019-03-08T17:32:20.145Z,48.74
2019-03-08T17:33:47.412Z,49.19
2019-03-08T17:34:58.843Z,49.24
2019-03-08T17:36:21.300Z,50.13
2019-03-08T17:37:26.107Z,48.36
2019-03-08T17:38:23.636Z,49.01
2019-03-08T17:39:36.535Z,48.23
2019-03-08T17:40:46.504Z,48.68
2019-03-08T17:41:52.123Z,48.64
2019-03-08T17:44:16.941Z,48.98
2019-03-08T17:45:36.613Z,49.09
2019-03-08T17:46:49.976Z,48.45
2019-03-08T17:48:00.716Z,49.36
2019-03-08T17:49:13.213Z,48.78
2019-03-08T17:50:26.363Z,49.11
2019-03-08T17:51:41.393Z,48.89
2019-03-08T17:52:54.989Z,49.22
2019-03-08T17:54:04.473Z,49.37
2019-03-08T17:55:18.448Z,48.54
2019-03-08T17:56:29.412Z,49.12
2019-03-08T17:57:38.744Z,49.50
2019-03-08T17:58:51.405Z,49.64
2019-03-08T17:59:51.443Z,50.21
2019-03-08T18:01:07.445Z,50.19
2019-03-08T18:02:24.734Z,50.40
2019-03-08T18:03:36.937Z,50.84
2019-03-08T18:04:47.520Z,50.70
2019-03-08T18:05:56.903Z,50.88
2019-03-08T18:07:11.886Z,50.93
2019-03-08T18:08:15.005Z,51.29
2019-03-08T18:09:14.712Z,51.59
2019-03-08T18:10:25.551Z,52.26
2019-03-08T18:11:30.579Z,52.51
2019-03-08T18:12:57.375Z,51.88
2019-03-08T18:14:10.819Z,52.80
2019-03-08T18:15:20.028Z,53.51
2019-03-08T18:16:20.255Z,52.82
2019-03-08T18:17:23.783Z,52.88
2019-03-08T18:18:31.373Z,52.64
2019-03-08T18:19:41.462Z,52.92
2019-03-08T18:21:01.114Z,53.09
2019-03-08T18:22:09.157Z,53.16
2019-03-08T18:23:11.511Z,53.37
2019-03-08T18:24:23.778Z,53.24
2019-03-08T18:25:31.222Z,54.08
2019-03-08T18:26:30.456Z,53.97
2019-03-08T18:27:38.971Z,53.76
2019-03-08T18:28:51.051Z,54.47
2019-03-08T18:30:11.378Z,56.15
2019-03-08T18:31:25.346Z,57.80
2019-03-08T18:32:35.655Z,57.01
2019-03-08T18:33:46.708Z,56.83
2019-03-08T18:34:45.503Z,56.26
2019-03-08T18:35:44.488Z,56.17
2019-03-08T18:36:57.860Z,56.32
2019-03-08T18:38:15.905Z,56.92
2019-03-08T18:39:37.078Z,57.00
2019-03-08T18:40:46.231Z,58.15
2019-03-08T18:42:02.290Z,57.56
2019-03-08T18:43:13.830Z,57.59
2019-03-08T18:44:21.328Z,58.37
2019-03-08T18:45:43.798Z,60.02
2019-03-08T18:47:01.272Z,59.61
2019-03-08T18:48:00.942Z,58.05
2019-03-08T18:49:21.493Z,59.55
2019-03-08T18:50:32.233Z,58.70
2019-03-08T18:51:41.384Z,59.64
2019-03-08T18:53:11.885Z,60.66
2019-03-08T18:54:22.701Z,59.97
2019-03-08T18:55:31.600Z,60.93
2019-03-08T18:56:40.645Z,61.29
2019-03-08T18:57:51.161Z,61.08
2019-03-08T18:58:51.601Z,60.42
2019-03-08T19:00:12.416Z,60.48
2019-03-08T19:01:20.896Z,61.11
2019-03-08T19:02:34.457Z,61.10
2019-03-08T19:03:50.155Z,62.43
2019-03-08T19:05:06.053Z,61.75
2019-03-08T19:06:26.760Z,62.51
2019-03-08T19:07:30.983Z,62.34
2019-03-08T19:08:50.008Z,62.50
2019-03-08T19:10:03.231Z,62.48
2019-03-08T19:11:10.824Z,62.40
2019-03-08T19:12:24.504Z,62.95
2019-03-08T19:13:46.425Z,62.46
2019-03-08T19:14:57.331Z,62.58
2019-03-08T19:16:01.246Z,62.54
2019-03-08T19:17:02.854Z,63.01
2019-03-08T19:18:15.299Z,64.07
2019-03-08T19:19:16.890Z,63.58
2019-03-08T19:20:33.901Z,64.68
2019-03-08T19:21:53.356Z,64.67
2019-03-08T19:23:06.477Z,64.51
2019-03-08T19:24:20.874Z,65.06
2019-03-08T19:25:23.230Z,64.66
2019-03-08T19:26:34.003Z,64.85
2019-03-08T19:27:44.654Z,64.79
2019-03-08T19:28:49.170Z,65.34
2019-03-08T19:30:03.901Z,65.65
2019-03-08T19:31:10.684Z,65.18
2019-03-08T19:32:29.051Z,66.75
2019-03-08T19:33:31.459Z,65.83
2019-03-08T19:34:41.740Z,65.82
2019-03-08T19:35:49.146Z,66.82
2019-03-08T19:36:49.580Z,66.39
2019-03-08T19:38:03.231Z,67.13
2019-03-08T19:39:20.858Z,65.80
2019-03-08T19:40:40.201Z,66.01
2019-03-08T19:41:38.161Z,66.46
2019-03-08T19:42:47.289Z,65.79
2019-03-08T19:43:57.902Z,66.61
2019-03-08T19:44:59.929Z,66.92
2019-03-08T19:46:19.045Z,66.09
2019-03-08T19:47:28.661Z,65.82
2019-03-08T19:48:42.294Z,65.70
2019-03-08T19:49:51.142Z,65.52
2019-03-08T19:51:08.361Z,66.55
2019-03-08T19:52:21.472Z,65.60
2019-03-08T19:53:34.623Z,66.03
2019-03-08T19:54:50.924Z,66.14
2019-03-08T19:56:02.877Z,66.03
2019-03-08T19:57:11.975Z,66.23
2019-03-08T19:58:13.522Z,66.28
2019-03-08T19:59:29.376Z,67.27
2019-03-08T20:00:43.512Z,66.90
2019-03-08T20:01:52.102Z,66.87
2019-03-08T20:02:57.694Z,67.21
2019-03-08T20:04:11.219Z,67.34
2019-03-08T20:05:26.688Z,67.19
2019-03-08T20:06:35.333Z,67.81
2019-03-08T20:07:52.411Z,68.27
2019-03-08T20:08:53.381Z,68.19
2019-03-08T20:09:57.822Z,67.83
2019-03-08T20:11:20.311Z,68.25
2019-03-08T20:12:28.989Z,67.80
2019-03-08T20:13:38.685Z,68.53
2019-03-08T20:15:03.912Z,68.34
2019-03-08T20:16:13.695Z,68.96
2019-03-08T20:17:26.735Z,69.47
2019-03-08T20:18:35.150Z,68.74
2019-03-08T20:19:41.849Z,68.85
2019-03-08T20:20:51.797Z,68.56
2019-03-08T20:21:49.341Z,68.69
2019-03-08T20:22:49.636Z,69.47
2019-03-08T20:24:03.414Z,69.20
2019-03-08T20:25:11.788Z,68.69
2019-03-08T20:26:26.333Z,69.28
2019-03-08T20:27:26.794Z,69.31
2019-03-08T20:28:31.894Z,69.02
2019-03-08T20:29:48.651Z,69.84
2019-03-08T20:30:58.664Z,69.68
2019-03-08T20:32:10.361Z,69.61
2019-03-08T20:33:10.684Z,69.67
2019-03-08T20:34:34.011Z,70.09
2019-03-08T20:35:44.326Z,69.58
2019-03-08T20:36:45.947Z,71.16
2019-03-08T20:37:44.723Z,70.77
2019-03-08T20:38:52.069Z,70.41
2019-03-08T20:40:07.173Z,70.91
2019-03-08T20:41:19.001Z,70.49
2019-03-08T20:42:36.422Z,70.79
2019-03-08T20:43:49.582Z,70.21
2019-03-08T20:44:47.160Z,70.25
2019-03-08T20:45:52.142Z,71.30
2019-03-08T20:47:05.295Z,71.04
2019-03-08T20:47:56.227Z,71.27
2019-03-08T20:48:48.454Z,71.84
2019-03-08T20:49:38.859Z,71.47
2019-03-08T20:50:31.711Z,71.22
2019-03-08T20:51:22.911Z,71.50
2019-03-08T20:52:14.042Z,71.35
2019-03-08T20:53:06.086Z,71.70
2019-03-08T20:53:56.792Z,72.41
2019-03-08T20:54:47.535Z,71.89
2019-03-08T20:55:38.807Z,72.41
2019-03-08T20:56:29.990Z,72.40
2019-03-08T20:57:22.090Z,73.02
2019-03-08T20:58:13.372Z,72.52
2019-03-08T20:59:06.592Z,72.14
2019-03-08T20:59:58.244Z,71.95
2019-03-08T21:00:49.649Z,73.08
2019-03-08T21:01:43.363Z,72.93
2019-03-08T21:02:37.000Z,73.17
2019-03-08T21:03:28.093Z,73.58
2019-03-08T21:04:19.032Z,73.22
2019-03-08T21:05:10.074Z,73.34
2019-03-08T21:06:01.513Z,73.75
2019-03-08T21:06:53.391Z,73.18
2019-03-08T21:07:44.492Z,72.82
2019-03-08T21:08:36.831Z,73.54
2019-03-08T21:09:29.199Z,73.52
2019-03-08T21:10:20.089Z,73.56
2019-03-08T21:11:11.229Z,73.39
2019-03-08T21:12:02.644Z,73.90
2019-03-08T21:12:55.411Z,73.65
2019-03-08T21:13:46.626Z,74.07
2019-03-08T21:14:37.708Z,73.86
2019-03-08T21:15:29.242Z,74.40
2019-03-08T21:16:20.395Z,74.35
2019-03-08T21:17:12.889Z,74.23
2019-03-08T21:18:03.728Z,73.89
2019-03-08T21:18:54.246Z,74.21
2019-03-08T21:19:45.553Z,74.36
2019-03-08T21:20:36.681Z,74.44
2019-03-08T21:21:28.439Z,74.36
2019-03-08T21:22:19.257Z,74.75
2019-03-08T21:23:10.583Z,74.81
2019-03-08T21:24:02.957Z,75.20
2019-03-08T21:24:55.751Z,74.83
2019-03-08T21:25:46.664Z,75.01
2019-03-08T21:26:39.398Z,74.72
2019-03-08T21:27:31.075Z,74.47
2019-03-08T21:28:22.218Z,74.22
2019-03-08T21:29:14.173Z,74.27
2019-03-08T21:30:06.133Z,74.69
2019-03-08T21:30:56.721Z,75.21
2019-03-08T21:31:49.149Z,74.99
2019-03-08T21:32:40.710Z,74.86
2019-03-08T21:33:33.014Z,75.91
2019-03-08T21:34:24.826Z,76.24
2019-03-08T21:35:15.597Z,75.72
2019-03-08T21:36:07.407Z,76.16
2019-03-08T21:37:01.400Z,75.88
2019-03-08T21:37:52.508Z,75.74
2019-03-08T21:38:43.711Z,76.43
2019-03-08T21:39:35.292Z,76.09
2019-03-08T21:40:26.449Z,76.70
2019-03-08T21:41:21.004Z,76.98
2019-03-08T21:42:12.417Z,76.82
2019-03-08T21:43:03.110Z,77.27
2019-03-08T21:43:55.566Z,77.02
2019-03-08T21:44:47.298Z,77.22
2019-03-08T21:45:39.804Z,77.43
2019-03-08T21:46:31.435Z,77.30
2019-03-08T21:47:22.969Z,76.69
2019-03-08T21:48:13.687Z,76.62
2019-03-08T21:49:04.707Z,76.65
2019-03-08T21:49:56.367Z,76.63
2019-03-08T21:50:48.755Z,76.37
2019-03-08T21:51:39.984Z,76.64
2019-03-08T21:52:31.459Z,77.16
2019-03-08T21:53:23.349Z,77.12
2019-03-08T21:54:14.092Z,77.24
2019-03-08T21:55:04.560Z,77.00
2019-03-08T21:55:55.152Z,77.27
2019-03-08T21:56:47.081Z,77.23
2019-03-08T21:57:37.786Z,77.37
2019-03-08T21:58:29.407Z,77.81
2019-03-08T21:59:20.539Z,77.73
2019-03-08T22:00:17.594Z,77.51
2019-03-08T22:01:08.886Z,77.40
2019-03-08T22:02:01.350Z,77.65
2019-03-08T22:02:54.014Z,77.95
2019-03-08T22:03:49.189Z,77.92
2019-03-08T22:04:46.905Z,77.99
2019-03-08T22:05:39.552Z,78.26
2019-03-08T22:06:30.488Z,78.48
2019-03-08T22:07:21.975Z,78.64
2019-03-08T22:08:17.200Z,78.48
2019-03-08T22:09:13.702Z,78.30
2019-03-08T22:10:31.233Z,78.57
2019-03-08T22:11:30.335Z,78.55
2019-03-08T22:12:22.233Z,77.79
2019-03-08T22:13:14.794Z,77.37
2019-03-08T22:14:05.863Z,78.07
2019-03-08T22:14:56.916Z,78.05
2019-03-08T22:15:47.974Z,78.11
2019-03-08T22:16:38.658Z,78.12
2019-03-08T22:17:29.430Z,77.94
2019-03-08T22:18:19.578Z,77.61
2019-03-08T22:19:11.718Z,77.64
2019-03-08T22:20:03.004Z,77.62
2019-03-08T22:20:53.704Z,77.45
2019-03-08T22:21:43.969Z,77.32
2019-03-08T22:22:37.351Z,77.60
2019-03-08T22:23:28.574Z,77.69
2019-03-08T22:24:22.175Z,77.74
2019-03-08T22:25:12.724Z,77.73
2019-03-08T22:26:03.974Z,77.54
2019-03-08T22:26:54.131Z,77.72
2019-03-08T22:27:44.655Z,77.33
2019-03-08T22:28:35.869Z,77.16
2019-03-08T22:29:27.931Z,77.04
2019-03-08T22:30:17.907Z,77.53
2019-03-08T22:31:08.969Z,77.37
2019-03-08T22:32:00.039Z,78.01
2019-03-08T22:32:50.841Z,77.89
2019-03-08T22:33:41.231Z,77.76
2019-03-08T22:34:32.208Z,77.97
2019-03-08T22:35:22.571Z,78.13
2019-03-08T22:36:13.238Z,78.54
2019-03-08T22:37:04.040Z,78.38
2019-03-08T22:37:56.027Z,78.07
2019-03-08T22:38:46.952Z,77.53
2019-03-08T22:39:37.689Z,77.14
2019-03-08T22:40:29.561Z,77.17
2019-03-08T22:41:21.788Z,77.17
2019-03-08T22:42:13.145Z,77.08
2019-03-08T22:43:03.391Z,77.30
2019-03-08T22:43:55.937Z,77.20
2019-03-08T22:44:47.746Z,77.22
2019-03-08T22:45:39.232Z,77.36
2019-03-08T22:46:29.286Z,77.66
2019-03-08T22:47:20.787Z,77.70
2019-03-08T22:48:11.385Z,77.74
2019-03-08T22:49:01.648Z,77.57
2019-03-08T22:49:52.251Z,77.74
2019-03-08T22:50:42.461Z,77.88
2019-03-08T22:51:33.070Z,77.79
2019-03-08T22:52:24.471Z,77.69
2019-03-08T22:53:15.911Z,77.87
2019-03-08T22:54:06.458Z,77.66
2019-03-08T22:54:56.809Z,77.64
2019-03-08T22:55:49.294Z,77.72
2019-03-08T22:56:40.486Z,77.54
2019-03-08T22:57:32.184Z,77.43
2019-03-08T22:58:24.387Z,77.37
2019-03-08T22:59:15.231Z,77.39
2019-03-08T23:00:16.398Z,77.20
2019-03-08T23:01:09.631Z,77.24
2019-03-08T23:02:07.867Z,77.11
2019-03-08T23:02:58.779Z,77.03
2019-03-08T23:03:49.292Z,76.97
2019-03-08T23:04:40.173Z,77.11
2019-03-08T23:05:30.551Z,77.30
2019-03-08T23:06:20.752Z,77.21
2019-03-08T23:07:11.269Z,77.04
2019-03-08T23:08:03.347Z,76.98
2019-03-08T23:08:54.440Z,77.02
2019-03-08T23:09:46.445Z,77.22
2019-03-08T23:10:37.894Z,77.24
2019-03-08T23:11:28.606Z,77.25
2019-03-08T23:12:19.730Z,77.33
2019-03-08T23:13:11.933Z,77.35
2019-03-08T23:14:02.273Z,77.27
2019-03-08T23:14:54.083Z,77.28
2019-03-08T23:15:44.961Z,77.29
2019-03-08T23:16:35.580Z,77.34
2019-03-08T23:17:26.815Z,77.12
2019-03-08T23:18:18.188Z,77.01
2019-03-08T23:19:09.555Z,76.98
2019-03-08T23:20:00.018Z,77.08
2019-03-08T23:20:50.681Z,77.14
2019-03-08T23:21:41.943Z,77.39
2019-03-08T23:22:32.325Z,77.61
2019-03-08T23:23:23.314Z,77.53
2019-03-08T23:24:14.555Z,77.41
2019-03-08T23:25:05.245Z,77.17
2019-03-08T23:25:56.411Z,76.82
2019-03-08T23:26:53.472Z,76.91
2019-03-08T23:27:48.439Z,76.75
2019-03-08T23:28:56.083Z,76.78
2019-03-08T23:29:58.985Z,77.11
2019-03-08T23:30:50.981Z,76.98
2019-03-08T23:32:10.319Z,77.09
2019-03-08T23:33:00.704Z,77.22
2019-03-08T23:33:52.540Z,77.66
2019-03-08T23:34:43.090Z,77.87
2019-03-08T23:35:34.038Z,77.54
2019-03-08T23:36:25.117Z,77.43
2019-03-08T23:37:15.669Z,77.64
2019-03-08T23:38:07.333Z,77.79
2019-03-08T23:38:58.115Z,77.57
2019-03-08T23:39:48.587Z,77.45
2019-03-08T23:40:39.585Z,77.76
2019-03-08T23:41:31.298Z,77.90
2019-03-08T23:42:21.526Z,78.14
2019-03-08T23:43:12.388Z,78.28
2019-03-08T23:44:03.442Z,78.30
2019-03-08T23:44:54.278Z,78.44
2019-03-08T23:45:45.578Z,78.17
2019-03-08T23:46:35.879Z,78.26
2019-03-08T23:47:28.332Z,78.42
2019-03-08T23:48:18.932Z,78.51
2019-03-08T23:49:09.409Z,79.12
2019-03-08T23:50:00.040Z,79.88
2019-03-08T23:50:50.969Z,79.82
2019-03-08T23:51:41.789Z,79.56
2019-03-08T23:52:33.093Z,79.62
2019-03-08T23:53:23.297Z,80.16
2019-03-08T23:54:14.833Z,80.46
2019-03-08T23:55:06.300Z,80.62
2019-03-08T23:55:57.781Z,80.79
2019-03-08T23:56:48.715Z,80.79
2019-03-08T23:57:40.254Z,80.90
2019-03-08T23:58:31.077Z,80.81
2019-03-08T23:59:22.299Z,80.45
